Terminal Aerodrome Forecast
Issued by NWS Jackson, MS

Home | Current Version | Previous Version | Text Only | Print | Product List | Glossary On
Versions: 1 2 3 4 5 6 7 8 9 10 11 12
000
FTUS44 KJAN 211132
TAFJAN
TAF
KJAN 211132Z 2112/2212 00000KT P6SM SKC
     FM211800 06003KT P6SM VCTS SCT060CB BKN250
     FM220000 17003KT P6SM FEW050 SCT250
     FM221000 19003KT 3SM BR SCT250=

USA.gov is the U.S. government's official web portal to all federal, state and local government web resources and services.